Time;durP1;ratioP1;P1;durP2;ratioP2;P2;SDS_P1;SDS_P2;PMS_P1;PMS_P2;Temp;Humidity;BMP_temperature;BMP_pressure;BME280_temperature;BME280_humidity;BME280_pressure;Samples;Min_cycle;Max_cycle;Signal;HPM_P1;HPM_P2
2022/01/10 00:01:09;;;;;;;9.43;4.97;;;;;;;5.38;100.00;90784.28;4979860;28;20569;-74
2022/01/10 00:03:36;;;;;;;4.73;4.10;;;;;;;5.37;100.00;90787.69;4980553;28;20196;-74
2022/01/10 00:06:03;;;;;;;15.30;4.83;;;;;;;5.37;100.00;90788.50;4979395;28;20438;-74
2022/01/10 00:08:31;;;;;;;5.83;5.20;;;;;;;5.36;100.00;90791.06;4978853;28;21093;-74
2022/01/10 00:10:58;;;;;;;8.50;4.00;;;;;;;5.37;100.00;90783.47;4980120;28;20568;-74
2022/01/10 00:13:27;;;;;;;6.63;3.33;;;;;;;5.39;100.00;90784.22;4978835;28;20506;-74
2022/01/10 00:15:54;;;;;;;10.73;4.37;;;;;;;5.39;100.00;90776.72;4980002;28;20465;-74
2022/01/10 00:18:21;;;;;;;4.40;4.00;;;;;;;5.40;100.00;90780.84;4978817;28;20568;-74
2022/01/10 00:20:49;;;;;;;5.43;4.60;;;;;;;5.41;100.00;90774.09;4979414;28;20211;-74
2022/01/10 00:23:16;;;;;;;6.63;4.20;;;;;;;5.42;100.00;90778.22;4979208;28;20642;-74
2022/01/10 00:25:43;;;;;;;5.33;4.77;;;;;;;5.30;100.00;90772.16;4979560;28;20463;-74
2022/01/10 00:28:10;;;;;;;5.93;4.97;;;;;;;5.39;100.00;90790.91;4978906;28;20184;-74
2022/01/10 00:30:39;;;;;;;9.27;4.00;;;;;;;5.39;100.00;90790.91;4979476;28;20450;-74
2022/01/10 00:33:06;;;;;;;13.07;3.30;;;;;;;5.37;100.00;90788.50;4978900;28;20446;-74
2022/01/10 00:35:34;;;;;;;8.97;4.33;;;;;;;5.35;100.00;90785.25;4977134;28;20215;-74
2022/01/10 00:38:01;;;;;;;5.10;4.70;;;;;;;5.27;100.00;90779.84;4978931;28;20603;-74
2022/01/10 00:40:28;;;;;;;14.73;3.83;;;;;;;5.38;100.00;90784.28;4978552;28;20535;-74
2022/01/10 00:42:56;;;;;;;9.80;3.97;;;;;;;5.45;100.00;90785.59;4978634;28;20580;-74
2022/01/10 00:45:26;;;;;;;18.83;4.10;;;;;;;5.20;100.00;90750.22;4979466;28;20619;-74
2022/01/10 00:47:56;;;;;;;7.03;4.87;;;;;;;5.40;100.00;90785.84;4978757;28;20553;-74
2022/01/10 00:50:24;;;;;;;8.00;4.60;;;;;;;5.37;100.00;90788.50;4978337;28;20520;-74
2022/01/10 00:52:51;;;;;;;7.83;3.43;;;;;;;5.28;100.00;90770.66;4978673;28;20639;-74
2022/01/10 00:55:19;;;;;;;12.17;5.13;;;;;;;5.38;100.00;90776.78;4978267;28;20512;-74
2022/01/10 00:57:46;;;;;;;10.80;4.60;;;;;;;5.44;100.00;90781.47;4977857;28;20469;-74
2022/01/10 01:00:16;;;;;;;4.27;3.97;;;;;;;5.52;100.00;90776.06;4977835;28;20560;-74
2022/01/10 01:02:43;;;;;;;9.27;5.70;;;;;;;5.51;100.00;90774.44;4978379;28;20595;-74
2022/01/10 01:05:14;;;;;;;12.50;4.73;;;;;;;5.57;100.00;90769.09;4978722;28;20567;-74
2022/01/10 01:07:42;;;;;;;6.87;5.50;;;;;;;5.61;100.00;90771.34;4978542;28;20655;-74
2022/01/10 01:12:57;;;;;;;7.17;5.93;;;;;;;5.52;100.00;90759.31;4977994;28;20222;-74
2022/01/10 01:15:29;;;;;;;15.00;7.43;;;;;;;5.48;100.00;90762.06;4978341;28;20480;-74
2022/01/10 01:18:10;;;;;;;6.43;5.67;;;;;;;5.47;100.00;90760.44;4979172;28;20521;-74
2022/01/10 01:24:01;;;;;;;17.63;6.07;;;;;;;5.35;100.00;90761.94;4978436;28;20569;-74
2022/01/10 01:26:18;;;;;;;11.17;4.90;;;;;;;5.03;100.00;90728.56;4978045;28;20691;-74
2022/01/10 01:28:45;;;;;;;5.97;4.27;;;;;;;5.25;100.00;90754.09;4977602;28;20576;-74
2022/01/10 01:31:12;;;;;;;20.73;5.80;;;;;;;5.25;100.00;90746.56;4977739;28;20475;-74
2022/01/10 01:33:40;;;;;;;17.03;5.70;;;;;;;5.31;100.00;90760.47;4977675;28;20588;-74
2022/01/10 01:36:09;;;;;;;17.37;6.40;;;;;;;5.33;100.00;90756.19;4978468;28;20218;-74
2022/01/10 01:38:37;;;;;;;22.73;8.80;;;;;;;5.31;100.00;90743.75;4977825;28;20468;-74
2022/01/10 01:41:21;;;;;;;11.00;7.87;;;;;;;5.36;100.00;90746.00;4977778;28;20227;-74
2022/01/10 01:43:50;;;;;;;9.83;5.13;;;;;;;5.32;100.00;90749.56;4977873;28;20195;-74
2022/01/10 01:46:18;;;;;;;13.43;4.80;;;;;;;5.26;100.00;90739.88;4977045;28;20575;-74
2022/01/10 01:48:46;;;;;;;7.00;5.00;;;;;;;5.24;100.00;90746.69;4977543;28;20592;-74
2022/01/10 01:51:15;;;;;;;10.47;5.73;;;;;;;5.31;100.00;90742.94;4977731;28;20187;-74
2022/01/10 01:53:42;;;;;;;7.37;6.00;;;;;;;5.26;100.00;90739.88;4977565;28;20599;-74
2022/01/10 01:56:11;;;;;;;4.20;3.87;;;;;;;5.18;100.00;90735.31;4977819;28;20596;-75
2022/01/10 01:58:40;;;;;;;12.23;4.03;;;;;;;5.26;100.00;90729.88;4975217;28;20574;-75
2022/01/10 02:01:09;;;;;;;8.83;5.47;;;;;;;5.30;100.00;90738.81;4977759;28;20619;-75
2022/01/10 02:03:38;;;;;;;6.57;5.33;;;;;;;5.25;100.00;90733.25;4977105;28;20477;-75
2022/01/10 02:06:06;;;;;;;5.03;3.50;;;;;;;5.24;100.00;90736.66;4976887;28;20316;-75
2022/01/10 02:08:37;;;;;;;7.30;3.70;;;;;;;5.28;100.00;90735.59;4977411;28;20532;-75
2022/01/10 02:11:04;;;;;;;4.23;3.70;;;;;;;5.24;100.00;90739.19;4977093;28;20537;-74
2022/01/10 02:13:31;;;;;;;4.10;3.70;;;;;;;5.20;100.00;90725.19;4976763;28;20195;-75
2022/01/10 02:16:01;;;;;;;6.87;4.43;;;;;;;5.06;100.00;90703.41;4977317;28;20560;-74
2022/01/10 02:18:31;;;;;;;11.80;3.93;;;;;;;5.17;100.00;90726.16;4977189;28;20653;-74
2022/01/10 02:21:03;;;;;;;6.67;3.43;;;;;;;5.28;100.00;90741.44;4976930;28;20550;-74
2022/01/10 02:23:31;;;;;;;4.07;3.57;;;;;;;5.20;100.00;90743.50;4977724;28;20565;-74
2022/01/10 02:25:58;;;;;;;6.20;3.23;;;;;;;5.24;100.00;90739.94;4976814;28;20469;-74
2022/01/10 02:28:26;;;;;;;5.33;3.63;;;;;;;5.16;100.00;90747.06;4976453;28;20580;-74
2022/01/10 02:30:57;;;;;;;5.47;3.97;;;;;;;5.06;100.00;90725.94;4976840;28;20269;-75
2022/01/10 02:33:25;;;;;;;12.00;4.67;;;;;;;5.17;100.00;90740.38;4978125;28;20191;-75
2022/01/10 02:36:01;;;;;;;4.83;4.43;;;;;;;5.21;100.00;90736.81;4977501;28;20647;-74
2022/01/10 02:38:29;;;;;;;8.87;4.67;;;;;;;5.24;100.00;90726.66;4976336;28;20459;-74
2022/01/10 02:40:58;;;;;;;4.97;4.50;;;;;;;5.23;100.00;90727.53;4976270;28;20486;-74
2022/01/10 02:43:25;;;;;;;5.80;3.40;;;;;;;5.25;100.00;90730.75;4976050;28;20687;-74
2022/01/10 02:45:52;;;;;;;7.77;5.47;;;;;;;5.23;100.00;90740.06;4976611;28;20477;-74
2022/01/10 02:48:19;;;;;;;6.90;4.87;;;;;;;5.20;100.00;90732.69;4976482;28;20564;-74
2022/01/10 02:50:47;;;;;;;11.07;5.60;;;;;;;5.26;100.00;90733.19;4976602;28;20568;-74
2022/01/10 02:53:14;;;;;;;10.33;5.63;;;;;;;5.22;100.00;90730.94;4976681;28;20265;-74
2022/01/10 02:55:43;;;;;;;4.27;3.93;;;;;;;5.21;100.00;90729.31;4975837;28;20667;-74
2022/01/10 02:58:10;;;;;;;11.13;5.00;;;;;;;5.17;100.00;90733.69;4975081;28;20627;-74
2022/01/10 03:00:37;;;;;;;5.30;4.37;;;;;;;5.21;100.00;90727.63;4976212;28;20231;-74
2022/01/10 03:03:06;;;;;;;10.03;4.60;;;;;;;5.23;100.00;90728.34;4976732;28;20489;-74
2022/01/10 03:05:34;;;;;;;5.83;3.37;;;;;;;5.35;100.00;90735.19;4976095;28;20588;-74
2022/01/10 03:08:03;;;;;;;6.43;5.00;;;;;;;5.33;100.00;90731.97;4976064;28;20643;-74
2022/01/10 03:10:31;;;;;;;10.00;6.03;;;;;;;5.26;100.00;90735.69;4976501;28;20218;-74
2022/01/10 03:13:01;;;;;;;11.30;6.97;;;;;;;5.32;100.00;90739.56;4976782;28;20576;-74
2022/01/10 03:15:29;;;;;;;5.07;4.57;;;;;;;5.30;100.00;90731.31;4976679;28;20587;-74
2022/01/10 03:17:57;;;;;;;6.77;3.93;;;;;;;5.24;100.00;90727.44;4976132;28;20464;-74
2022/01/10 03:20:24;;;;;;;5.47;5.07;;;;;;;5.22;100.00;90728.44;4976130;28;20542;-74
2022/01/10 03:22:52;;;;;;;11.53;7.17;;;;;;;5.18;100.00;90742.81;4976276;28;20591;-74
2022/01/10 03:25:19;;;;;;;10.33;5.27;;;;;;;5.24;100.00;90729.16;4975372;28;20634;-74
2022/01/10 03:27:47;;;;;;;7.10;6.33;;;;;;;5.23;100.00;90730.84;4976141;28;20246;-74
2022/01/10 03:30:16;;;;;;;7.47;4.97;;;;;;;5.18;100.00;90725.28;4975983;28;20470;-74
2022/01/10 03:32:46;;;;;;;7.53;5.33;;;;;;;5.23;100.00;90740.88;4975778;28;20654;-74
2022/01/10 03:35:13;;;;;;;9.60;5.90;;;;;;;5.15;100.00;90724.63;4975924;28;20213;-74
2022/01/10 03:37:40;;;;;;;5.77;5.10;;;;;;;5.18;100.00;90739.50;4977399;28;20200;-74
2022/01/10 03:40:09;;;;;;;5.73;5.20;;;;;;;5.24;100.00;90746.69;4976488;28;20242;-74
2022/01/10 03:42:37;;;;;;;8.20;5.90;;;;;;;5.30;100.00;90746.34;4975396;28;20226;-74
2022/01/10 03:45:06;;;;;;;6.43;5.90;;;;;;;5.33;100.00;90741.19;4976915;28;20235;-74
2022/01/10 03:47:34;;;;;;;5.97;4.93;;;;;;;5.37;100.00;90740.13;4975766;28;20600;-74
2022/01/10 03:50:02;;;;;;;4.87;4.47;;;;;;;5.24;100.00;90724.94;4975756;28;20592;-74
2022/01/10 03:52:29;;;;;;;6.00;4.80;;;;;;;5.38;100.00;90749.25;4975861;28;20590;-74
2022/01/10 03:54:56;;;;;;;4.63;3.50;;;;;;;5.36;100.00;90746.00;4975528;28;20204;-74
2022/01/10 03:57:24;;;;;;;3.83;3.50;;;;;;;5.34;100.00;90743.59;4976758;28;20497;-74
2022/01/10 03:59:51;;;;;;;5.53;4.60;;;;;;;5.35;100.00;90752.69;4975457;28;20240;-74
2022/01/10 04:02:18;;;;;;;3.80;3.50;;;;;;;5.37;100.00;90750.94;4975995;28;20531;-74
2022/01/10 04:04:47;;;;;;;8.73;4.17;;;;;;;5.39;100.00;90756.69;4975826;28;20504;-74
2022/01/10 04:07:16;;;;;;;4.53;3.60;;;;;;;5.40;100.00;90757.50;4975869;28;20475;-74
2022/01/10 04:09:44;;;;;;;6.60;5.70;;;;;;;5.26;100.00;90738.19;4978389;28;20568;-74
2022/01/10 04:12:11;;;;;;;9.43;5.90;;;;;;;5.27;100.00;90766.53;4978997;28;20600;-74
2022/01/10 04:14:38;;;;;;;7.00;6.40;;;;;;;5.26;100.00;90768.22;4979474;28;20470;-74
2022/01/10 04:17:05;;;;;;;6.83;5.80;;;;;;;5.31;100.00;90768.78;4978892;28;20211;-74
2022/01/10 04:19:33;;;;;;;3.70;3.47;;;;;;;5.26;100.00;90768.22;4979044;28;20485;-74
2022/01/10 04:22:02;;;;;;;3.30;2.97;;;;;;;5.21;100.00;90766.84;4979063;28;20614;-74
2022/01/10 04:24:29;;;;;;;10.03;4.13;;;;;;;5.23;100.00;90773.41;4980094;28;20204;-74
2022/01/10 04:26:56;;;;;;;4.40;4.00;;;;;;;5.21;100.00;90770.16;4979954;28;20219;-74
2022/01/10 04:29:23;;;;;;;6.00;4.57;;;;;;;5.35;100.00;90779.47;4979932;28;20606;-74
2022/01/10 04:31:52;;;;;;;14.57;7.67;;;;;;;5.20;100.00;90756.03;4977675;28;20473;-72
2022/01/10 04:34:22;;;;;;;16.10;8.97;;;;;;;5.15;100.00;90747.16;4969410;28;20599;-72
2022/01/10 04:36:50;;;;;;;9.30;5.83;;;;;;;5.21;100.00;90767.66;4970404;28;20623;-73
2022/01/10 04:39:20;;;;;;;10.30;3.73;;;;;;;5.39;100.00;90780.91;4972693;28;20880;-72
2022/01/10 04:41:47;;;;;;;18.47;5.93;;;;;;;5.24;100.00;90761.69;4972065;28;20522;-72
2022/01/10 04:44:15;;;;;;;11.87;8.23;;;;;;;5.14;100.00;90748.84;4978393;28;20459;-72
2022/01/10 04:46:42;;;;;;;13.60;9.13;;;;;;;5.36;100.00;90786.06;4977772;28;20556;-72
2022/01/10 04:49:17;;;;;;;36.77;9.00;;;;;;;5.44;100.00;90783.97;4979489;28;20549;-72
2022/01/10 04:51:45;;;;;;;41.97;19.70;;;;;;;5.41;100.00;90784.94;4978097;28;20229;-72
2022/01/10 04:54:12;;;;;;;62.20;26.97;;;;;;;5.42;100.00;90790.75;4978056;28;20474;-72
2022/01/10 04:56:40;;;;;;;26.10;16.33;;;;;;;5.35;100.00;90785.25;4977164;28;20446;-72
2022/01/10 04:59:08;;;;;;;29.57;13.50;;;;;;;5.39;100.00;90790.91;4978168;28;20239;-72
2022/01/10 05:01:35;;;;;;;44.63;17.40;;;;;;;5.41;100.00;90789.13;4978096;28;20242;-72
2022/01/10 05:04:02;;;;;;;39.07;14.00;;;;;;;5.39;100.00;90794.25;4978706;28;20199;-72
2022/01/10 05:06:29;;;;;;;37.87;15.23;;;;;;;5.34;100.00;90788.66;4976754;28;20556;-72
2022/01/10 05:08:57;;;;;;;219.27;61.13;;;;;;;4.88;100.00;90700.19;4958170;28;20475;-72
2022/01/10 05:11:24;;;;;;;181.00;58.80;;;;;;;5.40;100.00;90793.34;4959443;28;20481;-73
2022/01/10 05:13:53;;;;;;;46.43;18.53;;;;;;;5.44;100.00;90788.97;4972799;28;20636;-72
2022/01/10 05:16:20;;;;;;;15.50;9.20;;;;;;;5.40;100.00;90778.34;4977881;28;20553;-73
2022/01/10 05:18:47;;;;;;;9.27;8.27;;;;;;;5.58;100.00;90791.53;4978018;28;20572;-72
2022/01/10 05:21:16;;;;;;;17.40;11.33;;;;;;;5.57;100.00;90796.66;4977431;28;20670;-72
2022/01/10 05:23:43;;;;;;;25.03;17.10;;;;;;;5.42;100.00;90781.53;4977317;28;20486;-72
2022/01/10 05:26:11;;;;;;;14.40;12.00;;;;;;;5.27;100.00;90764.84;4977672;28;20223;-73
2022/01/10 05:28:38;;;;;;;8.50;7.63;;;;;;;5.45;100.00;90809.81;4978198;28;20203;-72
2022/01/10 05:31:07;;;;;;;7.13;6.83;;;;;;;5.13;100.00;90791.44;4977941;28;20644;-72
2022/01/10 05:33:34;;;;;;;10.23;7.33;;;;;;;5.20;100.00;90790.25;4978622;28;20556;-72
2022/01/10 05:36:02;;;;;;;7.07;6.47;;;;;;;5.33;100.00;90817.09;4978522;28;20301;-72
2022/01/10 05:38:29;;;;;;;8.77;7.87;;;;;;;5.25;100.00;90810.84;4978241;28;20607;-73
2022/01/10 05:40:57;;;;;;;14.03;8.27;;;;;;;5.37;100.00;90821.03;4978279;28;20607;-72
2022/01/10 05:43:28;;;;;;;11.63;8.37;;;;;;;5.41;100.00;90819.97;4977520;28;20595;-72
2022/01/10 05:45:55;;;;;;;10.63;8.63;;;;;;;5.32;100.00;90829.69;4967403;28;20222;-72
2022/01/10 05:48:28;;;;;;;10.77;6.30;;;;;;;5.21;100.00;90817.72;4972317;28;20624;-73
2022/01/10 05:50:56;;;;;;;8.83;7.93;;;;;;;5.07;100.00;90806.81;4970644;28;20544;-74
2022/01/10 05:53:24;;;;;;;12.43;7.10;;;;;;;5.26;100.00;90835.00;4973723;28;20488;-75
2022/01/10 05:55:51;;;;;;;20.80;11.77;;;;;;;5.34;100.00;90838.72;4974330;28;20321;-74
2022/01/10 05:58:19;;;;;;;24.13;12.73;;;;;;;5.35;100.00;90842.81;4972946;28;20621;-75
2022/01/10 06:00:52;;;;;;;30.47;15.20;;;;;;;5.27;100.00;90812.41;4974984;28;20730;-74
2022/01/10 06:03:26;;;;;;;24.77;14.17;;;;;;;5.24;100.00;90811.75;4974573;28;20555;-74
2022/01/10 06:05:55;;;;;;;32.70;14.43;;;;;;;5.24;100.00;90815.03;4966918;28;20483;-75
2022/01/10 06:08:24;;;;;;;22.93;15.47;;;;;;;5.40;100.00;90832.59;4960012;28;20524;-74
2022/01/10 06:10:53;;;;;;;49.03;19.97;;;;;;;5.17;100.00;90811.25;4964683;28;20576;-73
2022/01/10 06:13:20;;;;;;;35.57;17.83;;;;;;;5.37;100.00;90840.25;4963353;28;20584;-73
2022/01/10 06:15:48;;;;;;;40.27;16.20;;;;;;;5.33;100.00;90848.81;4963262;28;20564;-72
2022/01/10 06:18:15;;;;;;;21.03;13.87;;;;;;;5.08;100.00;90830.94;4972293;28;20576;-72
2022/01/10 06:20:44;;;;;;;36.10;18.93;;;;;;;5.33;100.00;90859.66;4972709;28;20501;-74
2022/01/10 06:23:11;;;;;;;35.60;15.50;;;;;;;5.36;100.00;90851.16;4972406;28;20496;-73
2022/01/10 06:25:41;;;;;;;16.77;13.07;;;;;;;5.47;100.00;90853.91;4974201;28;20590;-72
2022/01/10 06:28:09;;;;;;;82.70;27.47;;;;;;;5.46;100.00;90846.50;4969197;28;20595;-73
2022/01/10 06:30:37;;;;;;;39.20;17.67;;;;;;;5.45;100.00;90840.69;4969808;28;20603;-73
2022/01/10 06:33:04;;;;;;;26.10;12.80;;;;;;;5.61;100.00;90864.03;4972484;28;20273;-73
2022/01/10 06:35:32;;;;;;;19.07;11.60;;;;;;;5.58;100.00;90850.84;4964509;28;20533;-72
2022/01/10 06:38:00;;;;;;;33.37;15.50;;;;;;;5.51;100.00;90862.91;4968518;28;20282;-72
2022/01/10 06:40:28;;;;;;;34.30;17.30;;;;;;;5.53;100.00;90870.31;4969630;28;20261;-73
2022/01/10 06:42:55;;;;;;;30.00;14.17;;;;;;;5.59;100.00;90867.47;4974263;28;20711;-72
2022/01/10 06:45:23;;;;;;;24.13;15.00;;;;;;;5.60;100.00;90879.13;4972484;28;20484;-73
2022/01/10 06:47:50;;;;;;;40.70;15.87;;;;;;;5.61;100.00;90865.72;4975111;28;20481;-73
2022/01/10 06:50:18;;;;;;;32.83;16.73;;;;;;;5.58;100.00;90864.16;4973843;28;20568;-73
2022/01/10 06:52:45;;;;;;;42.93;16.37;;;;;;;5.69;100.00;90873.66;4972566;28;20553;-73
2022/01/10 06:55:14;;;;;;;32.70;15.47;;;;;;;5.65;100.00;90870.47;4971705;28;20568;-75
2022/01/10 06:57:41;;;;;;;40.67;18.90;;;;;;;5.70;100.00;90871.03;4973814;28;20484;-74
2022/01/10 07:00:10;;;;;;;35.03;16.30;;;;;;;5.64;100.00;90860.53;4972253;28;20631;-74
2022/01/10 07:02:38;;;;;;;30.20;16.37;;;;;;;5.73;100.00;90877.59;4975984;28;20245;-72
2022/01/10 07:05:06;;;;;;;36.77;17.20;;;;;;;5.75;100.00;90878.31;4973194;28;20489;-74
2022/01/10 07:07:33;;;;;;;39.50;18.87;;;;;;;5.68;100.00;90875.34;4973449;28;20221;-72
2022/01/10 07:10:00;;;;;;;36.37;18.40;;;;;;;5.69;100.00;90876.94;4972245;28;20564;-72
2022/01/10 07:12:29;;;;;;;38.70;19.60;;;;;;;5.67;100.00;90878.75;4971745;28;20513;-73
2022/01/10 07:15:01;;;;;;;62.87;24.80;;;;;;;5.25;100.00;90823.38;4973085;28;20273;-74
2022/01/10 07:17:29;;;;;;;30.17;18.90;;;;;;;5.52;100.00;90859.47;4972458;28;20559;-72
2022/01/10 07:19:57;;;;;;;52.63;24.37;;;;;;;5.51;100.00;90852.88;4965276;28;20577;-72
2022/01/10 07:22:25;;;;;;;41.00;22.10;;;;;;;5.67;100.00;90876.22;4963793;28;20234;-71
2022/01/10 07:24:52;;;;;;;36.30;21.23;;;;;;;5.78;100.00;90896.53;4964501;28;20690;-73
2022/01/10 07:27:19;;;;;;;28.73;18.03;;;;;;;5.74;100.00;90897.56;4966683;28;20572;-74
2022/01/10 07:29:50;;;;;;;15.47;11.90;;;;;;;5.63;100.00;90894.81;4973226;28;20203;-73
2022/01/10 07:32:18;;;;;;;15.70;12.83;;;;;;;5.66;100.00;90896.34;4968997;28;20564;-73
2022/01/10 07:34:46;;;;;;;30.80;15.90;;;;;;;5.67;100.00;90882.94;4965706;28;20612;-73
2022/01/10 07:37:15;;;;;;;26.97;15.53;;;;;;;5.70;100.00;90893.59;4965612;28;20239;-74
2022/01/10 07:39:43;;;;;;;33.80;16.97;;;;;;;5.60;100.00;90882.44;4967064;28;20500;-72
2022/01/10 07:42:10;;;;;;;35.33;19.93;;;;;;;5.74;100.00;90897.56;4972769;28;20495;-73
2022/01/10 07:44:37;;;;;;;48.33;20.67;;;;;;;5.73;100.00;90880.13;4972773;28;20641;-73
2022/01/10 07:47:08;;;;;;;37.63;20.37;;;;;;;5.84;100.00;90903.72;4970724;28;20607;-73
2022/01/10 07:49:35;;;;;;;36.13;21.13;;;;;;;5.83;100.00;90902.09;4969438;28;20553;-73
2022/01/10 07:52:02;;;;;;;156.97;48.17;;;;;;;5.75;100.00;90906.69;4971612;28;20537;-73
2022/01/10 07:54:30;;;;;;;109.80;39.47;;;;;;;5.77;100.00;90906.59;4975088;28;20592;-74
2022/01/10 07:56:58;;;;;;;48.87;24.90;;;;;;;5.70;100.00;90886.06;4973271;28;20591;-73
2022/01/10 07:59:26;;;;;;;62.23;27.00;;;;;;;5.74;100.00;90900.09;4966189;28;20529;-74
2022/01/10 08:01:53;;;;;;;35.00;17.23;;;;;;;5.10;100.00;90804.13;4973543;28;20497;-73
2022/01/10 08:04:22;;;;;;;21.73;14.77;;;;;;;5.47;100.00;90868.13;4967006;28;20592;-74
2022/01/10 08:06:50;;;;;;;28.37;15.70;;;;;;;5.64;100.00;90896.41;4972615;28;20552;-74
2022/01/10 08:09:17;;;;;;;49.43;24.17;;;;;;;5.56;100.00;90873.47;4973114;28;20538;-73
2022/01/10 08:11:46;;;;;;;38.83;19.80;;;;;;;5.72;100.00;90891.81;4966124;28;20600;-73
2022/01/10 08:14:14;;;;;;;38.40;20.70;;;;;;;5.90;100.00;90909.31;4965412;28;20666;-73
2022/01/10 08:16:41;;;;;;;57.97;25.60;;;;;;;5.69;100.00;90866.13;4966689;28;20593;-73
2022/01/10 08:19:10;;;;;;;61.13;27.20;;;;;;;5.87;100.00;90885.22;4963707;28;20478;-74
2022/01/10 08:21:38;;;;;;;58.90;24.80;;;;;;;6.09;100.00;90913.25;4976630;28;20496;-75
2022/01/10 08:24:06;;;;;;;62.33;28.27;;;;;;;5.84;100.00;90868.63;4976256;28;20592;-74
2022/01/10 08:26:33;;;;;;;54.90;26.17;;;;;;;5.78;100.00;90853.13;4973384;28;20577;-73
2022/01/10 08:29:01;;;;;;;58.70;27.27;;;;;;;6.04;100.00;90891.84;4974985;28;20615;-74
2022/01/10 08:31:28;;;;;;;67.23;29.53;;;;;;;6.07;100.00;90900.03;4972316;28;20493;-74
2022/01/10 08:33:56;;;;;;;71.07;30.13;;;;;;;6.11;100.00;90905.66;4960875;28;20673;-74
2022/01/10 08:36:24;;;;;;;65.70;29.07;;;;;;;6.08;100.00;90906.66;4971030;28;20199;-74
2022/01/10 08:38:52;;;;;;;53.57;26.40;;;;;;;6.17;100.00;90910.34;4973303;28;20474;-73
2022/01/10 08:41:20;;;;;;;64.53;29.67;;;;;;;6.18;100.00;90911.97;4972956;28;20604;-73
2022/01/10 08:43:47;;;;;;;72.07;31.20;;;;;;;6.22;100.00;90924.25;4971369;28;20526;-74
2022/01/10 08:46:15;;;;;;;64.33;30.10;;;;;;;6.24;100.00;90916.66;4968644;28;20603;-74
2022/01/10 08:48:42;;;;;;;64.00;27.30;;;;;;;6.24;100.00;90922.50;4972061;28;20491;-74
2022/01/10 08:51:09;;;;;;;134.63;45.07;;;;;;;6.15;100.00;90914.63;4975409;28;20555;-73
2022/01/10 08:53:37;;;;;;;99.23;35.83;;;;;;;6.19;100.00;90921.13;4975121;28;20535;-73
2022/01/10 08:56:06;;;;;;;73.60;33.60;;;;;;;6.13;100.00;90917.25;4971423;28;20614;-73
2022/01/10 08:58:34;;;;;;;91.97;31.30;;;;;;;6.15;100.00;90914.63;4974121;28;20667;-75
2022/01/10 09:01:01;;;;;;;53.17;23.83;;;;;;;6.04;100.00;90915.22;4975424;28;20204;-73
2022/01/10 09:03:29;;;;;;;40.70;22.50;;;;;;;6.01;100.00;90917.88;4974576;28;20220;-74
2022/01/10 09:05:56;;;;;;;40.23;22.30;;;;;;;6.08;100.00;90913.38;4974651;28;20613;-74
2022/01/10 09:08:27;;;;;;;34.20;20.23;;;;;;;5.99;100.00;90894.59;4974935;28;20518;-74
2022/01/10 09:10:54;;;;;;;42.50;23.50;;;;;;;5.97;100.00;90880.56;4971164;28;20588;-74
2022/01/10 09:13:23;;;;;;;44.37;21.57;;;;;;;6.23;100.00;90910.03;4972106;28;20529;-74
2022/01/10 09:15:50;;;;;;;41.27;20.60;;;;;;;6.28;100.00;90912.28;4972515;28;20566;-72
2022/01/10 09:18:18;;;;;;;32.27;20.30;;;;;;;6.18;100.00;90904.47;4974169;28;20676;-73
2022/01/10 09:20:46;;;;;;;96.53;34.80;;;;;;;6.18;100.00;90900.25;4971549;28;20636;-74
2022/01/10 09:23:14;;;;;;;80.30;31.90;;;;;;;6.16;100.00;90904.53;4971898;28;20635;-74
2022/01/10 09:25:41;;;;;;;64.43;29.77;;;;;;;6.25;100.00;90911.53;4972979;28;20235;-74
2022/01/10 09:28:08;;;;;;;73.93;29.20;;;;;;;6.27;100.00;90903.94;4974695;28;20642;-73
2022/01/10 09:30:37;;;;;;;63.17;27.67;;;;;;;6.15;100.00;90895.38;4974640;28;20553;-73
2022/01/10 09:33:04;;;;;;;36.87;17.47;;;;;;;6.18;100.00;90909.47;4974776;28;20573;-74
2022/01/10 09:35:31;;;;;;;36.97;18.50;;;;;;;6.25;100.00;90903.25;4974314;28;20552;-73
2022/01/10 09:37:59;;;;;;;39.93;20.97;;;;;;;6.10;100.00;90869.75;4973685;28;20563;-73
2022/01/10 09:40:26;;;;;;;42.50;20.93;;;;;;;6.25;100.00;90895.72;4974574;28;20253;-73
2022/01/10 09:42:54;;;;;;;37.97;16.33;;;;;;;6.28;100.00;90893.03;4974453;28;20227;-74
2022/01/10 09:45:22;;;;;;;25.07;15.57;;;;;;;6.10;100.00;90863.94;4974228;28;20580;-75
2022/01/10 09:47:51;;;;;;;26.00;14.20;;;;;;;5.98;100.00;90847.88;4973730;28;20254;-74
2022/01/10 09:50:18;;;;;;;24.27;15.13;;;;;;;6.16;100.00;90878.66;4973805;28;20197;-74
2022/01/10 09:52:47;;;;;;;71.33;33.53;;;;;;;6.09;100.00;90890.69;4972252;28;20463;-74
2022/01/10 09:55:15;;;;;;;202.37;86.27;;;;;;;5.91;100.00;90879.19;4974195;28;20513;-75
2022/01/10 09:57:42;;;;;;;32.90;16.67;;;;;;;5.92;100.00;90874.94;4973083;28;20557;-74
2022/01/10 10:00:11;;;;;;;18.70;12.57;;;;;;;5.89;100.00;90867.59;4972232;28;20599;-74
2022/01/10 10:02:40;;;;;;;15.30;12.60;;;;;;;5.97;100.00;90878.03;4973239;28;20650;-74
2022/01/10 10:05:11;;;;;;;15.97;12.03;;;;;;;5.81;100.00;90881.31;4972822;28;20616;-75
2022/01/10 10:07:40;;;;;;;34.27;16.43;;;;;;;5.83;100.00;90877.03;4969893;28;20603;-73
2022/01/10 10:10:11;;;;;;;29.70;17.27;;;;;;;5.87;100.00;90885.22;4970245;28;20286;-73
2022/01/10 10:12:40;;;;;;;33.17;14.00;;;;;;;5.87;100.00;90879.38;4973623;28;20564;-73
2022/01/10 10:15:10;;;;;;;19.57;12.13;;;;;;;5.65;100.00;90839.63;4971670;28;20561;-74
2022/01/10 10:17:38;;;;;;;12.77;8.07;;;;;;;5.79;100.00;90864.75;4975034;28;20563;-73
2022/01/10 10:20:09;;;;;;;17.53;8.83;;;;;;;5.90;100.00;90871.72;4974373;28;20308;-74
2022/01/10 10:22:39;;;;;;;21.47;11.87;;;;;;;5.92;100.00;90863.22;4973786;28;20619;-73
2022/01/10 10:25:07;;;;;;;15.87;11.57;;;;;;;5.88;100.00;90864.28;4972959;28;20309;-73
2022/01/10 10:27:37;;;;;;;18.77;11.63;;;;;;;6.05;100.00;90875.91;4974321;28;20612;-73
2022/01/10 10:30:09;;;;;;;10.60;9.67;;;;;;;5.98;100.00;90870.41;4972494;28;20526;-73
2022/01/10 10:32:37;;;;;;;22.30;9.47;;;;;;;5.89;100.00;90862.59;4972927;28;20226;-73
2022/01/10 10:35:05;;;;;;;11.70;7.20;;;;;;;5.99;100.00;90883.75;4970281;28;20530;-72
2022/01/10 10:37:37;;;;;;;13.83;9.47;;;;;;;5.97;100.00;90870.53;4971515;28;20529;-72
2022/01/10 10:40:09;;;;;;;27.90;16.90;;;;;;;5.95;100.00;90865.59;4973721;28;20240;-73
2022/01/10 10:42:38;;;;;;;61.17;26.03;;;;;;;5.92;100.00;90864.91;4971283;28;20499;-72
2022/01/10 10:45:06;;;;;;;90.20;41.23;;;;;;;5.97;100.00;90868.81;4971289;28;20529;-72
2022/01/10 10:47:38;;;;;;;59.90;27.77;;;;;;;5.92;100.00;90873.25;4970938;28;20354;-73
2022/01/10 10:50:07;;;;;;;84.17;37.13;;;;;;;6.02;100.00;90871.09;4970368;28;20564;-73
2022/01/10 10:52:37;;;;;;;13.27;10.27;;;;;;;5.97;100.00;90873.03;4973866;28;20580;-73
2022/01/10 10:55:07;;;;;;;6.67;6.27;;;;;;;5.94;100.00;90870.66;4973976;28;20592;-73
2022/01/10 10:57:35;;;;;;;9.07;6.30;;;;;;;5.99;100.00;90873.75;4970393;28;20535;-73
2022/01/10 11:00:06;;;;;;;12.60;7.03;;;;;;;6.00;100.00;90882.88;4971099;28;20714;-73
2022/01/10 11:02:34;;;;;;;17.50;7.87;;;;;;;6.05;100.00;90878.44;4972641;28;20639;-73
2022/01/10 11:05:04;;;;;;;11.63;7.73;;;;;;;5.99;100.00;90877.06;4973513;28;20595;-73
2022/01/10 11:07:34;;;;;;;16.80;9.20;;;;;;;6.05;100.00;90883.44;4975207;28;20226;-73
2022/01/10 11:10:04;;;;;;;11.70;9.10;;;;;;;6.12;100.00;90890.56;4972769;28;20604;-74
2022/01/10 11:12:34;;;;;;;9.73;8.57;;;;;;;6.17;100.00;90895.31;4973002;28;20592;-73
2022/01/10 11:15:02;;;;;;;8.37;4.93;;;;;;;6.07;100.00;90897.50;4971474;28;20682;-72
2022/01/10 11:17:30;;;;;;;5.17;4.77;;;;;;;6.02;100.00;90898.66;4967436;28;20226;-73
2022/01/10 11:20:16;;;;;;;8.73;7.93;;;;;;;6.06;100.00;90897.59;4965665;28;20497;-73
2022/01/10 11:22:45;;;;;;;8.50;7.40;;;;;;;5.53;100.00;90828.53;4970855;28;20628;-74
2022/01/10 11:25:28;;;;;;;7.77;7.13;;;;;;;5.86;100.00;90876.06;4973092;28;20304;-73
2022/01/10 11:27:57;;;;;;;8.07;7.27;;;;;;;5.92;100.00;90889.97;4970685;28;20590;-73
2022/01/10 11:30:31;;;;;;;13.97;9.90;;;;;;;5.90;100.00;90891.78;4971622;28;20494;-73
2022/01/10 11:33:03;;;;;;;15.70;8.67;;;;;;;6.03;100.00;90898.53;4974678;28;20553;-73
2022/01/10 11:35:33;;;;;;;6.20;5.67;;;;;;;6.02;100.00;90899.47;4971824;28;20607;-73